sensor_id;sensor_type;location;lat;lon;timestamp;temperature;humidity
71173;DHT22;58875;51.996;4.504;2023-02-13T00:00:55;8.82;72.97
71173;DHT22;58875;51.996;4.504;2023-02-13T00:03:21;8.84;72.94
71173;DHT22;58875;51.996;4.504;2023-02-13T00:05:46;8.81;73.12
71173;DHT22;58875;51.996;4.504;2023-02-13T00:08:12;8.79;73.13
71173;DHT22;58875;51.996;4.504;2023-02-13T00:10:37;8.78;73.35
71173;DHT22;58875;51.996;4.504;2023-02-13T00:13:03;8.79;73.22
71173;DHT22;58875;51.996;4.504;2023-02-13T00:15:28;8.78;73.18
71173;DHT22;58875;51.996;4.504;2023-02-13T00:17:54;8.78;73.30
71173;DHT22;58875;51.996;4.504;2023-02-13T00:20:20;8.74;73.20
71173;DHT22;58875;51.996;4.504;2023-02-13T00:22:45;8.72;73.56
71173;DHT22;58875;51.996;4.504;2023-02-13T00:25:11;8.74;73.47
71173;DHT22;58875;51.996;4.504;2023-02-13T00:27:36;8.72;73.55
71173;DHT22;58875;51.996;4.504;2023-02-13T00:30:03;8.71;73.55
71173;DHT22;58875;51.996;4.504;2023-02-13T00:32:29;8.68;73.29
71173;DHT22;58875;51.996;4.504;2023-02-13T00:34:56;8.63;73.42
71173;DHT22;58875;51.996;4.504;2023-02-13T00:37:24;8.63;73.78
71173;DHT22;58875;51.996;4.504;2023-02-13T00:39:49;8.63;73.66
71173;DHT22;58875;51.996;4.504;2023-02-13T00:42:15;8.64;73.69
71173;DHT22;58875;51.996;4.504;2023-02-13T00:44:40;8.60;73.76
71173;DHT22;58875;51.996;4.504;2023-02-13T00:47:06;8.55;73.93
71173;DHT22;58875;51.996;4.504;2023-02-13T00:49:31;8.55;73.95
71173;DHT22;58875;51.996;4.504;2023-02-13T00:51:57;8.57;73.93
71173;DHT22;58875;51.996;4.504;2023-02-13T00:54:22;8.61;73.95
71173;DHT22;58875;51.996;4.504;2023-02-13T00:56:48;8.64;73.96
71173;DHT22;58875;51.996;4.504;2023-02-13T00:59:14;8.72;73.70
71173;DHT22;58875;51.996;4.504;2023-02-13T01:01:40;8.75;73.56
71173;DHT22;58875;51.996;4.504;2023-02-13T01:04:05;8.75;73.66
71173;DHT22;58875;51.996;4.504;2023-02-13T01:06:31;8.76;73.42
71173;DHT22;58875;51.996;4.504;2023-02-13T01:08:56;8.79;73.49
71173;DHT22;58875;51.996;4.504;2023-02-13T01:11:22;8.72;73.53
71173;DHT22;58875;51.996;4.504;2023-02-13T01:13:47;8.75;73.50
71173;DHT22;58875;51.996;4.504;2023-02-13T01:16:13;8.74;73.62
71173;DHT22;58875;51.996;4.504;2023-02-13T01:18:40;8.79;73.51
71173;DHT22;58875;51.996;4.504;2023-02-13T01:21:11;8.78;73.25
71173;DHT22;58875;51.996;4.504;2023-02-13T01:23:38;8.69;73.29
71173;DHT22;58875;51.996;4.504;2023-02-13T01:26:06;8.69;73.49
71173;DHT22;58875;51.996;4.504;2023-02-13T01:28:33;8.71;73.48
71173;DHT22;58875;51.996;4.504;2023-02-13T01:30:59;8.65;73.55
71173;DHT22;58875;51.996;4.504;2023-02-13T01:33:26;8.63;73.75
71173;DHT22;58875;51.996;4.504;2023-02-13T01:35:52;8.61;73.75
71173;DHT22;58875;51.996;4.504;2023-02-13T01:38:18;8.68;73.70
71173;DHT22;58875;51.996;4.504;2023-02-13T01:40:50;8.74;73.64
71173;DHT22;58875;51.996;4.504;2023-02-13T01:43:16;8.74;73.62
71173;DHT22;58875;51.996;4.504;2023-02-13T01:45:45;8.76;73.79
71173;DHT22;58875;51.996;4.504;2023-02-13T01:50:51;8.79;73.57
71173;DHT22;58875;51.996;4.504;2023-02-13T01:53:25;8.78;73.62
71173;DHT22;58875;51.996;4.504;2023-02-13T01:56:01;8.75;73.66
71173;DHT22;58875;51.996;4.504;2023-02-13T01:58:31;8.78;73.70
71173;DHT22;58875;51.996;4.504;2023-02-13T02:00:59;8.71;73.77
71173;DHT22;58875;51.996;4.504;2023-02-13T02:03:34;8.72;73.65
71173;DHT22;58875;51.996;4.504;2023-02-13T02:06:02;8.75;73.83
71173;DHT22;58875;51.996;4.504;2023-02-13T02:08:30;8.72;73.80
71173;DHT22;58875;51.996;4.504;2023-02-13T02:11:06;8.68;74.00
71173;DHT22;58875;51.996;4.504;2023-02-13T02:13:34;8.72;74.07
71173;DHT22;58875;51.996;4.504;2023-02-13T02:16:00;8.76;73.78
71173;DHT22;58875;51.996;4.504;2023-02-13T02:18:26;8.74;73.73
71173;DHT22;58875;51.996;4.504;2023-02-13T02:39:21;8.79;73.81
71173;DHT22;58875;51.996;4.504;2023-02-13T02:44:14;8.82;73.66
71173;DHT22;58875;51.996;4.504;2023-02-13T02:55:35;8.85;73.60
71173;DHT22;58875;51.996;4.504;2023-02-13T02:58:18;8.79;73.52
71173;DHT22;58875;51.996;4.504;2023-02-13T03:01:08;8.79;73.56
71173;DHT22;58875;51.996;4.504;2023-02-13T03:03:56;8.75;73.60
71173;DHT22;58875;51.996;4.504;2023-02-13T03:07:03;8.67;73.66
71173;DHT22;58875;51.996;4.504;2023-02-13T03:09:37;8.68;73.79
71173;DHT22;58875;51.996;4.504;2023-02-13T03:12:29;8.65;73.94
71173;DHT22;58875;51.996;4.504;2023-02-13T03:15:16;8.69;73.88
71173;DHT22;58875;51.996;4.504;2023-02-13T03:17:42;8.67;73.95
71173;DHT22;58875;51.996;4.504;2023-02-13T03:20:54;8.68;73.96
71173;DHT22;58875;51.996;4.504;2023-02-13T03:24:23;8.69;73.84
71173;DHT22;58875;51.996;4.504;2023-02-13T03:36:06;8.72;73.69
71173;DHT22;58875;51.996;4.504;2023-02-13T03:39:15;8.65;73.98
71173;DHT22;58875;51.996;4.504;2023-02-13T03:42:06;8.58;74.28
71173;DHT22;58875;51.996;4.504;2023-02-13T03:44:47;8.51;74.62
71173;DHT22;58875;51.996;4.504;2023-02-13T03:47:35;8.54;74.54
71173;DHT22;58875;51.996;4.504;2023-02-13T03:50:03;8.54;74.57
71173;DHT22;58875;51.996;4.504;2023-02-13T03:52:42;8.54;74.66
71173;DHT22;58875;51.996;4.504;2023-02-13T03:55:19;8.54;74.61
71173;DHT22;58875;51.996;4.504;2023-02-13T03:58:12;8.47;74.76
71173;DHT22;58875;51.996;4.504;2023-02-13T04:01:01;8.41;75.02
71173;DHT22;58875;51.996;4.504;2023-02-13T04:03:47;8.50;75.07
71173;DHT22;58875;51.996;4.504;2023-02-13T04:06:19;8.47;75.04
71173;DHT22;58875;51.996;4.504;2023-02-13T04:08:46;8.53;74.97
71173;DHT22;58875;51.996;4.504;2023-02-13T04:11:30;8.55;74.88
71173;DHT22;58875;51.996;4.504;2023-02-13T04:14:07;8.57;74.89
71173;DHT22;58875;51.996;4.504;2023-02-13T04:17:01;8.60;74.69
71173;DHT22;58875;51.996;4.504;2023-02-13T04:19:27;8.55;74.94
71173;DHT22;58875;51.996;4.504;2023-02-13T04:21:58;8.53;74.88
71173;DHT22;58875;51.996;4.504;2023-02-13T04:24:25;8.48;75.33
71173;DHT22;58875;51.996;4.504;2023-02-13T04:26:52;8.53;75.19
71173;DHT22;58875;51.996;4.504;2023-02-13T04:29:20;8.47;75.20
71173;DHT22;58875;51.996;4.504;2023-02-13T04:31:47;8.51;75.21
71173;DHT22;58875;51.996;4.504;2023-02-13T04:34:12;8.54;75.24
71173;DHT22;58875;51.996;4.504;2023-02-13T04:36:38;8.45;75.26
71173;DHT22;58875;51.996;4.504;2023-02-13T04:39:03;8.54;75.44
71173;DHT22;58875;51.996;4.504;2023-02-13T04:41:29;8.48;75.46
71173;DHT22;58875;51.996;4.504;2023-02-13T04:43:54;8.54;75.62
71173;DHT22;58875;51.996;4.504;2023-02-13T04:46:20;8.54;75.45
71173;DHT22;58875;51.996;4.504;2023-02-13T04:48:45;8.55;75.34
71173;DHT22;58875;51.996;4.504;2023-02-13T04:51:11;8.60;75.30
71173;DHT22;58875;51.996;4.504;2023-02-13T04:53:36;8.57;75.40
71173;DHT22;58875;51.996;4.504;2023-02-13T04:56:02;8.57;75.47
71173;DHT22;58875;51.996;4.504;2023-02-13T04:58:28;8.60;75.43
71173;DHT22;58875;51.996;4.504;2023-02-13T05:00:53;8.58;75.46
71173;DHT22;58875;51.996;4.504;2023-02-13T05:03:19;8.57;75.51
71173;DHT22;58875;51.996;4.504;2023-02-13T05:05:44;8.55;75.65
71173;DHT22;58875;51.996;4.504;2023-02-13T05:08:10;8.55;75.76
71173;DHT22;58875;51.996;4.504;2023-02-13T05:10:36;8.54;75.94
71173;DHT22;58875;51.996;4.504;2023-02-13T05:13:02;8.54;75.77
71173;DHT22;58875;51.996;4.504;2023-02-13T05:15:27;8.57;76.07
71173;DHT22;58875;51.996;4.504;2023-02-13T05:17:53;8.54;75.72
71173;DHT22;58875;51.996;4.504;2023-02-13T05:20:19;8.55;75.71
71173;DHT22;58875;51.996;4.504;2023-02-13T05:22:45;8.54;75.74
71173;DHT22;58875;51.996;4.504;2023-02-13T05:25:30;8.51;75.95
71173;DHT22;58875;51.996;4.504;2023-02-13T05:27:56;8.48;76.09
71173;DHT22;58875;51.996;4.504;2023-02-13T05:30:21;8.47;76.33
71173;DHT22;58875;51.996;4.504;2023-02-13T05:32:47;8.51;76.31
71173;DHT22;58875;51.996;4.504;2023-02-13T05:35:15;8.54;76.24
71173;DHT22;58875;51.996;4.504;2023-02-13T05:37:40;8.58;76.23
71173;DHT22;58875;51.996;4.504;2023-02-13T05:40:06;8.57;76.24
71173;DHT22;58875;51.996;4.504;2023-02-13T05:42:32;8.57;76.27
71173;DHT22;58875;51.996;4.504;2023-02-13T05:44:57;8.58;76.33
71173;DHT22;58875;51.996;4.504;2023-02-13T05:47:23;8.64;76.10
71173;DHT22;58875;51.996;4.504;2023-02-13T05:49:48;8.65;76.20
71173;DHT22;58875;51.996;4.504;2023-02-13T05:52:14;8.69;76.06
71173;DHT22;58875;51.996;4.504;2023-02-13T05:54:39;8.65;76.14
71173;DHT22;58875;51.996;4.504;2023-02-13T05:57:05;8.64;76.33
71173;DHT22;58875;51.996;4.504;2023-02-13T05:59:31;8.67;76.38
71173;DHT22;58875;51.996;4.504;2023-02-13T06:01:56;8.69;76.34
71173;DHT22;58875;51.996;4.504;2023-02-13T06:04:22;8.71;76.38
71173;DHT22;58875;51.996;4.504;2023-02-13T06:06:47;8.65;76.38
71173;DHT22;58875;51.996;4.504;2023-02-13T06:09:13;8.58;76.71
71173;DHT22;58875;51.996;4.504;2023-02-13T06:11:38;8.63;76.88
71173;DHT22;58875;51.996;4.504;2023-02-13T06:14:04;8.53;76.99
71173;DHT22;58875;51.996;4.504;2023-02-13T06:16:30;8.53;77.16
71173;DHT22;58875;51.996;4.504;2023-02-13T06:18:56;8.48;77.28
71173;DHT22;58875;51.996;4.504;2023-02-13T06:21:22;8.48;77.31
71173;DHT22;58875;51.996;4.504;2023-02-13T06:23:47;8.41;77.47
71173;DHT22;58875;51.996;4.504;2023-02-13T06:26:13;8.44;77.61
71173;DHT22;58875;51.996;4.504;2023-02-13T06:28:39;8.50;77.50
71173;DHT22;58875;51.996;4.504;2023-02-13T06:31:04;8.48;77.48
71173;DHT22;58875;51.996;4.504;2023-02-13T06:33:30;8.45;77.53
71173;DHT22;58875;51.996;4.504;2023-02-13T06:35:56;8.41;77.64
71173;DHT22;58875;51.996;4.504;2023-02-13T06:38:21;8.38;77.82
71173;DHT22;58875;51.996;4.504;2023-02-13T06:40:48;8.36;77.87
71173;DHT22;58875;51.996;4.504;2023-02-13T06:43:14;8.34;77.96
71173;DHT22;58875;51.996;4.504;2023-02-13T06:45:40;8.34;78.02
71173;DHT22;58875;51.996;4.504;2023-02-13T06:48:06;8.40;78.14
71173;DHT22;58875;51.996;4.504;2023-02-13T06:50:32;8.37;78.03
71173;DHT22;58875;51.996;4.504;2023-02-13T06:52:59;8.43;77.98
71173;DHT22;58875;51.996;4.504;2023-02-13T06:55:26;8.47;77.89
71173;DHT22;58875;51.996;4.504;2023-02-13T06:57:51;8.44;77.89
71173;DHT22;58875;51.996;4.504;2023-02-13T07:00:18;8.53;77.80
71173;DHT22;58875;51.996;4.504;2023-02-13T07:02:45;8.53;77.89
71173;DHT22;58875;51.996;4.504;2023-02-13T07:05:12;8.57;78.00
71173;DHT22;58875;51.996;4.504;2023-02-13T07:07:39;8.55;77.75
71173;DHT22;58875;51.996;4.504;2023-02-13T07:10:10;8.53;77.78
71173;DHT22;58875;51.996;4.504;2023-02-13T07:12:36;8.58;77.88
71173;DHT22;58875;51.996;4.504;2023-02-13T07:15:03;8.61;77.75
71173;DHT22;58875;51.996;4.504;2023-02-13T07:17:29;8.64;77.63
71173;DHT22;58875;51.996;4.504;2023-02-13T07:19:56;8.67;77.67
71173;DHT22;58875;51.996;4.504;2023-02-13T07:22:21;8.69;77.49
71173;DHT22;58875;51.996;4.504;2023-02-13T07:24:47;8.67;77.44
71173;DHT22;58875;51.996;4.504;2023-02-13T07:27:12;8.68;77.56
71173;DHT22;58875;51.996;4.504;2023-02-13T07:29:38;8.72;77.50
71173;DHT22;58875;51.996;4.504;2023-02-13T07:32:04;8.79;77.47
71173;DHT22;58875;51.996;4.504;2023-02-13T07:34:31;8.81;77.35
71173;DHT22;58875;51.996;4.504;2023-02-13T07:36:57;8.81;77.42
71173;DHT22;58875;51.996;4.504;2023-02-13T07:39:22;8.84;77.32
71173;DHT22;58875;51.996;4.504;2023-02-13T07:41:48;8.92;77.22
71173;DHT22;58875;51.996;4.504;2023-02-13T07:44:14;9.01;77.05
71173;DHT22;58875;51.996;4.504;2023-02-13T07:46:39;9.12;76.78
71173;DHT22;58875;51.996;4.504;2023-02-13T07:49:05;9.18;76.79
71173;DHT22;58875;51.996;4.504;2023-02-13T07:51:31;9.13;76.57
71173;DHT22;58875;51.996;4.504;2023-02-13T07:53:57;9.08;76.87
71173;DHT22;58875;51.996;4.504;2023-02-13T07:56:23;9.02;76.60
71173;DHT22;58875;51.996;4.504;2023-02-13T07:58:49;8.98;76.79
71173;DHT22;58875;51.996;4.504;2023-02-13T08:01:16;8.93;76.98
71173;DHT22;58875;51.996;4.504;2023-02-13T08:03:42;8.79;77.39
71173;DHT22;58875;51.996;4.504;2023-02-13T08:06:08;8.82;77.39
71173;DHT22;58875;51.996;4.504;2023-02-13T08:08:35;8.78;77.40
71173;DHT22;58875;51.996;4.504;2023-02-13T08:11:07;8.76;77.70
71173;DHT22;58875;51.996;4.504;2023-02-13T08:13:51;8.76;77.57
71173;DHT22;58875;51.996;4.504;2023-02-13T08:16:17;8.76;77.69
71173;DHT22;58875;51.996;4.504;2023-02-13T08:18:42;8.84;77.77
71173;DHT22;58875;51.996;4.504;2023-02-13T08:21:08;8.91;77.71
71173;DHT22;58875;51.996;4.504;2023-02-13T08:23:33;8.96;77.47
71173;DHT22;58875;51.996;4.504;2023-02-13T08:26:00;9.50;76.59
71173;DHT22;58875;51.996;4.504;2023-02-13T08:28:27;9.99;75.03
71173;DHT22;58875;51.996;4.504;2023-02-13T08:30:53;10.44;73.17
71173;DHT22;58875;51.996;4.504;2023-02-13T08:33:18;10.65;72.54
71173;DHT22;58875;51.996;4.504;2023-02-13T08:35:44;10.76;71.63
71173;DHT22;58875;51.996;4.504;2023-02-13T08:38:09;10.80;71.36
71173;DHT22;58875;51.996;4.504;2023-02-13T08:40:35;10.84;71.07
71173;DHT22;58875;51.996;4.504;2023-02-13T08:43:02;11.01;70.82
71173;DHT22;58875;51.996;4.504;2023-02-13T08:45:29;11.03;70.64
71173;DHT22;58875;51.996;4.504;2023-02-13T08:47:56;11.03;70.59
71173;DHT22;58875;51.996;4.504;2023-02-13T08:50:22;10.81;70.52
71173;DHT22;58875;51.996;4.504;2023-02-13T08:52:48;10.35;72.07
71173;DHT22;58875;51.996;4.504;2023-02-13T08:55:13;10.02;73.29
71173;DHT22;58875;51.996;4.504;2023-02-13T08:57:39;9.73;73.94
71173;DHT22;58875;51.996;4.504;2023-02-13T09:00:05;9.56;74.78
71173;DHT22;58875;51.996;4.504;2023-02-13T09:02:31;9.33;75.44
71173;DHT22;58875;51.996;4.504;2023-02-13T09:04:56;9.23;76.09
71173;DHT22;58875;51.996;4.504;2023-02-13T09:07:22;9.19;76.36
71173;DHT22;58875;51.996;4.504;2023-02-13T09:09:47;9.18;76.62
71173;DHT22;58875;51.996;4.504;2023-02-13T09:12:13;9.18;76.47
71173;DHT22;58875;51.996;4.504;2023-02-13T09:14:39;9.12;76.88
71173;DHT22;58875;51.996;4.504;2023-02-13T09:17:05;9.13;77.05
71173;DHT22;58875;51.996;4.504;2023-02-13T09:19:30;9.12;76.88
71173;DHT22;58875;51.996;4.504;2023-02-13T09:21:56;9.13;77.25
71173;DHT22;58875;51.996;4.504;2023-02-13T09:24:21;9.26;77.01
71173;DHT22;58875;51.996;4.504;2023-02-13T09:26:47;9.33;76.77
71173;DHT22;58875;51.996;4.504;2023-02-13T09:29:13;9.39;76.69
71173;DHT22;58875;51.996;4.504;2023-02-13T09:31:38;9.40;76.52
71173;DHT22;58875;51.996;4.504;2023-02-13T09:34:04;9.42;76.45
71173;DHT22;58875;51.996;4.504;2023-02-13T09:36:30;9.48;76.21
71173;DHT22;58875;51.996;4.504;2023-02-13T09:38:57;9.54;76.02
71173;DHT22;58875;51.996;4.504;2023-02-13T09:41:30;9.47;75.84
71173;DHT22;58875;51.996;4.504;2023-02-13T09:46:35;9.74;75.70
71173;DHT22;58875;51.996;4.504;2023-02-13T09:49:14;9.77;75.65
71173;DHT22;58875;51.996;4.504;2023-02-13T09:51:43;9.81;75.29
71173;DHT22;58875;51.996;4.504;2023-02-13T09:54:14;9.77;75.26
71173;DHT22;58875;51.996;4.504;2023-02-13T09:59:49;9.84;75.00
71173;DHT22;58875;51.996;4.504;2023-02-13T10:04:59;9.85;75.02
71173;DHT22;58875;51.996;4.504;2023-02-13T10:10:43;9.95;74.91
71173;DHT22;58875;51.996;4.504;2023-02-13T10:18:42;9.90;74.80
71173;DHT22;58875;51.996;4.504;2023-02-13T10:21:12;9.97;74.79
71173;DHT22;58875;51.996;4.504;2023-02-13T10:23:50;10.05;74.51
71173;DHT22;58875;51.996;4.504;2023-02-13T10:26:30;10.12;74.55
71173;DHT22;58875;51.996;4.504;2023-02-13T10:29:20;10.28;74.20
71173;DHT22;58875;51.996;4.504;2023-02-13T10:32:14;10.34;73.92
71173;DHT22;58875;51.996;4.504;2023-02-13T10:34:44;10.41;73.55
71173;DHT22;58875;51.996;4.504;2023-02-13T10:37:18;10.52;73.32
71173;DHT22;58875;51.996;4.504;2023-02-13T10:39:48;10.57;72.61
71173;DHT22;58875;51.996;4.504;2023-02-13T10:42:24;10.66;73.34
71173;DHT22;58875;51.996;4.504;2023-02-13T10:50:27;10.95;72.91
71173;DHT22;58875;51.996;4.504;2023-02-13T10:53:14;10.89;71.45
71173;DHT22;58875;51.996;4.504;2023-02-13T10:59:12;10.81;72.05
71173;DHT22;58875;51.996;4.504;2023-02-13T11:01:59;10.99;72.43
71173;DHT22;58875;51.996;4.504;2023-02-13T11:04:28;11.17;71.52
71173;DHT22;58875;51.996;4.504;2023-02-13T11:09:25;11.26;70.93
71173;DHT22;58875;51.996;4.504;2023-02-13T11:11:52;11.27;71.07
71173;DHT22;58875;51.996;4.504;2023-02-13T11:14:20;11.34;70.64
71173;DHT22;58875;51.996;4.504;2023-02-13T11:19:19;11.31;71.17
71173;DHT22;58875;51.996;4.504;2023-02-13T11:21:51;11.45;70.87
71173;DHT22;58875;51.996;4.504;2023-02-13T11:24:23;11.47;70.25
71173;DHT22;58875;51.996;4.504;2023-02-13T11:26:53;11.50;70.42
71173;DHT22;58875;51.996;4.504;2023-02-13T11:32:33;11.62;69.89
71173;DHT22;58875;51.996;4.504;2023-02-13T11:34:52;11.62;69.72
71173;DHT22;58875;51.996;4.504;2023-02-13T11:37:28;11.72;69.73
71173;DHT22;58875;51.996;4.504;2023-02-13T11:39:57;11.81;69.25
71173;DHT22;58875;51.996;4.504;2023-02-13T11:42:33;11.81;69.26
71173;DHT22;58875;51.996;4.504;2023-02-13T11:47:40;11.86;68.90
71173;DHT22;58875;51.996;4.504;2023-02-13T11:50:21;11.99;68.97
71173;DHT22;58875;51.996;4.504;2023-02-13T11:52:54;11.95;67.92
71173;DHT22;58875;51.996;4.504;2023-02-13T11:55:38;12.00;68.20
71173;DHT22;58875;51.996;4.504;2023-02-13T12:00:38;12.17;67.60
71173;DHT22;58875;51.996;4.504;2023-02-13T12:06:01;12.30;66.75
71173;DHT22;58875;51.996;4.504;2023-02-13T12:08:29;12.43;66.83
71173;DHT22;58875;51.996;4.504;2023-02-13T12:10:57;12.51;66.60
71173;DHT22;58875;51.996;4.504;2023-02-13T12:13:34;12.58;66.75
71173;DHT22;58875;51.996;4.504;2023-02-13T12:16:53;12.60;66.58
71173;DHT22;58875;51.996;4.504;2023-02-13T12:19:04;12.71;66.51
71173;DHT22;58875;51.996;4.504;2023-02-13T12:22:19;12.57;65.92
71173;DHT22;58875;51.996;4.504;2023-02-13T12:24:56;12.67;66.28
71173;DHT22;58875;51.996;4.504;2023-02-13T12:29:54;12.70;66.21
71173;DHT22;58875;51.996;4.504;2023-02-13T12:35:28;12.71;65.12
71173;DHT22;58875;51.996;4.504;2023-02-13T12:41:09;12.53;65.48
71173;DHT22;58875;51.996;4.504;2023-02-13T12:49:35;12.80;64.79
71173;DHT22;58875;51.996;4.504;2023-02-13T12:55:18;13.01;64.53
71173;DHT22;58875;51.996;4.504;2023-02-13T13:06:20;13.08;63.99
71173;DHT22;58875;51.996;4.504;2023-02-13T13:09:11;13.09;63.65
71173;DHT22;58875;51.996;4.504;2023-02-13T13:15:03;13.42;63.09
71173;DHT22;58875;51.996;4.504;2023-02-13T13:23:34;13.42;62.57
71173;DHT22;58875;51.996;4.504;2023-02-13T13:28:49;13.48;61.81
71173;DHT22;58875;51.996;4.504;2023-02-13T13:31:18;13.50;61.60
71173;DHT22;58875;51.996;4.504;2023-02-13T13:33:46;13.42;61.86
71173;DHT22;58875;51.996;4.504;2023-02-13T13:50:30;13.52;61.86
71173;DHT22;58875;51.996;4.504;2023-02-13T13:53:12;13.46;61.72
71173;DHT22;58875;51.996;4.504;2023-02-13T13:58:36;13.30;61.93
71173;DHT22;58875;51.996;4.504;2023-02-13T14:03:41;13.34;62.09
71173;DHT22;58875;51.996;4.504;2023-02-13T14:06:17;13.34;62.38
71173;DHT22;58875;51.996;4.504;2023-02-13T14:08:56;13.29;62.62
71173;DHT22;58875;51.996;4.504;2023-02-13T14:11:33;13.39;62.19
71173;DHT22;58875;51.996;4.504;2023-02-13T14:13:59;13.40;61.63
71173;DHT22;58875;51.996;4.504;2023-02-13T14:16:43;13.35;62.06
71173;DHT22;58875;51.996;4.504;2023-02-13T14:19:25;13.32;61.74
71173;DHT22;58875;51.996;4.504;2023-02-13T14:24:49;13.16;61.82
71173;DHT22;58875;51.996;4.504;2023-02-13T14:27:21;13.18;62.00
71173;DHT22;58875;51.996;4.504;2023-02-13T14:29:48;13.25;62.00
71173;DHT22;58875;51.996;4.504;2023-02-13T14:34:53;13.02;62.03
71173;DHT22;58875;51.996;4.504;2023-02-13T14:37:32;13.02;62.33
71173;DHT22;58875;51.996;4.504;2023-02-13T14:42:42;12.99;62.39
71173;DHT22;58875;51.996;4.504;2023-02-13T14:45:23;12.99;62.31
71173;DHT22;58875;51.996;4.504;2023-02-13T14:47:56;12.99;61.95
71173;DHT22;58875;51.996;4.504;2023-02-13T14:50:45;12.85;62.47
71173;DHT22;58875;51.996;4.504;2023-02-13T14:53:27;12.83;62.75
71173;DHT22;58875;51.996;4.504;2023-02-13T14:56:08;12.85;63.17
71173;DHT22;58875;51.996;4.504;2023-02-13T14:58:48;12.78;63.40
71173;DHT22;58875;51.996;4.504;2023-02-13T15:01:58;12.76;64.02
71173;DHT22;58875;51.996;4.504;2023-02-13T15:04:43;12.81;63.82
71173;DHT22;58875;51.996;4.504;2023-02-13T15:07:19;12.89;63.92
71173;DHT22;58875;51.996;4.504;2023-02-13T15:09:52;12.85;63.74
71173;DHT22;58875;51.996;4.504;2023-02-13T15:12:31;12.76;64.36
71173;DHT22;58875;51.996;4.504;2023-02-13T15:14:58;12.68;64.46
71173;DHT22;58875;51.996;4.504;2023-02-13T15:17:31;12.57;64.46
71173;DHT22;58875;51.996;4.504;2023-02-13T15:22:40;12.63;64.90
71173;DHT22;58875;51.996;4.504;2023-02-13T15:27:59;12.56;64.90
71173;DHT22;58875;51.996;4.504;2023-02-13T15:30:34;12.57;64.82
71173;DHT22;58875;51.996;4.504;2023-02-13T15:33:24;12.48;64.90
71173;DHT22;58875;51.996;4.504;2023-02-13T15:35:57;12.40;65.35
71173;DHT22;58875;51.996;4.504;2023-02-13T15:38:29;12.43;65.36
71173;DHT22;58875;51.996;4.504;2023-02-13T15:41:17;12.37;65.71
71173;DHT22;58875;51.996;4.504;2023-02-13T15:43:48;12.41;65.67
71173;DHT22;58875;51.996;4.504;2023-02-13T15:46:26;12.40;65.84
71173;DHT22;58875;51.996;4.504;2023-02-13T15:48:57;12.33;66.25
71173;DHT22;58875;51.996;4.504;2023-02-13T15:51:29;12.33;66.50
71173;DHT22;58875;51.996;4.504;2023-02-13T15:54:30;12.26;66.51
71173;DHT22;58875;51.996;4.504;2023-02-13T15:56:49;12.20;66.78
71173;DHT22;58875;51.996;4.504;2023-02-13T15:59:18;12.19;66.79
71173;DHT22;58875;51.996;4.504;2023-02-13T16:01:45;12.15;66.90
71173;DHT22;58875;51.996;4.504;2023-02-13T16:04:14;12.12;67.01
71173;DHT22;58875;51.996;4.504;2023-02-13T16:06:42;12.02;67.38
71173;DHT22;58875;51.996;4.504;2023-02-13T16:14:28;11.90;67.41
71173;DHT22;58875;51.996;4.504;2023-02-13T16:17:04;11.85;67.75
71173;DHT22;58875;51.996;4.504;2023-02-13T16:27:43;11.68;68.15
71173;DHT22;58875;51.996;4.504;2023-02-13T16:30:26;11.59;68.62
71173;DHT22;58875;51.996;4.504;2023-02-13T16:35:36;11.58;68.56
71173;DHT22;58875;51.996;4.504;2023-02-13T16:38:03;11.48;68.69
71173;DHT22;58875;51.996;4.504;2023-02-13T16:40:38;11.48;68.82
71173;DHT22;58875;51.996;4.504;2023-02-13T16:46:15;11.28;69.35
71173;DHT22;58875;51.996;4.504;2023-02-13T16:48:47;11.20;69.60
71173;DHT22;58875;51.996;4.504;2023-02-13T16:56:46;10.99;70.56
71173;DHT22;58875;51.996;4.504;2023-02-13T17:01:48;10.99;70.86
71173;DHT22;58875;51.996;4.504;2023-02-13T17:04:22;10.96;70.89
71173;DHT22;58875;51.996;4.504;2023-02-13T17:06:53;10.84;70.85
71173;DHT22;58875;51.996;4.504;2023-02-13T17:09:20;10.77;71.03
71173;DHT22;58875;51.996;4.504;2023-02-13T17:11:50;10.70;71.32
71173;DHT22;58875;51.996;4.504;2023-02-13T17:14:16;10.60;71.54
71173;DHT22;58875;51.996;4.504;2023-02-13T17:16:42;10.52;71.87
71173;DHT22;58875;51.996;4.504;2023-02-13T17:19:07;10.41;71.94
71173;DHT22;58875;51.996;4.504;2023-02-13T17:21:34;10.34;72.25
71173;DHT22;58875;51.996;4.504;2023-02-13T17:24:01;10.31;72.65
71173;DHT22;58875;51.996;4.504;2023-02-13T17:26:27;10.25;72.58
71173;DHT22;58875;51.996;4.504;2023-02-13T17:28:52;10.18;72.85
71173;DHT22;58875;51.996;4.504;2023-02-13T17:31:18;10.07;72.95
71173;DHT22;58875;51.996;4.504;2023-02-13T17:33:44;9.99;73.02
71173;DHT22;58875;51.996;4.504;2023-02-13T17:36:12;9.88;73.08
71173;DHT22;58875;51.996;4.504;2023-02-13T17:38:38;9.77;73.10
71173;DHT22;58875;51.996;4.504;2023-02-13T17:41:07;9.67;73.56
71173;DHT22;58875;51.996;4.504;2023-02-13T17:43:35;9.61;73.84
71173;DHT22;58875;51.996;4.504;2023-02-13T17:46:01;9.51;74.04
71173;DHT22;58875;51.996;4.504;2023-02-13T17:48:26;9.44;74.36
71173;DHT22;58875;51.996;4.504;2023-02-13T17:50:52;9.39;74.60
71173;DHT22;58875;51.996;4.504;2023-02-13T17:53:23;9.36;74.95
71173;DHT22;58875;51.996;4.504;2023-02-13T17:55:49;9.33;75.36
71173;DHT22;58875;51.996;4.504;2023-02-13T17:58:15;9.32;75.31
71173;DHT22;58875;51.996;4.504;2023-02-13T18:00:40;9.25;75.37
71173;DHT22;58875;51.996;4.504;2023-02-13T18:03:06;9.20;75.27
71173;DHT22;58875;51.996;4.504;2023-02-13T18:05:32;9.15;75.51
71173;DHT22;58875;51.996;4.504;2023-02-13T18:07:58;9.09;75.73
71173;DHT22;58875;51.996;4.504;2023-02-13T18:10:28;9.04;76.10
71173;DHT22;58875;51.996;4.504;2023-02-13T18:12:55;9.06;76.33
71173;DHT22;58875;51.996;4.504;2023-02-13T18:15:22;9.09;76.42
71173;DHT22;58875;51.996;4.504;2023-02-13T18:17:49;9.02;76.53
71173;DHT22;58875;51.996;4.504;2023-02-13T18:20:21;8.99;76.70
71173;DHT22;58875;51.996;4.504;2023-02-13T18:22:47;8.96;76.85
71173;DHT22;58875;51.996;4.504;2023-02-13T18:25:16;8.91;77.08
71173;DHT22;58875;51.996;4.504;2023-02-13T18:27:42;8.88;77.13
71173;DHT22;58875;51.996;4.504;2023-02-13T18:30:10;8.79;77.13
71173;DHT22;58875;51.996;4.504;2023-02-13T18:32:36;8.74;77.10
71173;DHT22;58875;51.996;4.504;2023-02-13T18:35:02;8.68;77.09
71173;DHT22;58875;51.996;4.504;2023-02-13T18:37:28;8.64;77.21
71173;DHT22;58875;51.996;4.504;2023-02-13T18:39:55;8.60;77.43
71173;DHT22;58875;51.996;4.504;2023-02-13T18:42:21;8.60;77.69
71173;DHT22;58875;51.996;4.504;2023-02-13T18:44:47;8.60;77.74
71173;DHT22;58875;51.996;4.504;2023-02-13T18:47:12;8.58;77.60
71173;DHT22;58875;51.996;4.504;2023-02-13T18:49:38;8.51;77.63
71173;DHT22;58875;51.996;4.504;2023-02-13T18:52:07;8.47;77.67
71173;DHT22;58875;51.996;4.504;2023-02-13T18:54:32;8.41;77.70
71173;DHT22;58875;51.996;4.504;2023-02-13T18:57:01;8.40;77.61
71173;DHT22;58875;51.996;4.504;2023-02-13T18:59:27;8.34;77.68
71173;DHT22;58875;51.996;4.504;2023-02-13T19:01:52;8.29;77.67